sensor_id;sensor_type;location;lat;lon;timestamp;P1;durP1;ratioP1;P2;durP2;ratioP2
27722;SDS011;15123;-37.794;175.246;2023-04-25T00:01:29;12.02;;;2.38;;
27722;SDS011;15123;-37.794;175.246;2023-04-25T00:04:00;12.60;;;2.17;;
27722;SDS011;15123;-37.794;175.246;2023-04-25T00:06:34;11.70;;;2.40;;
27722;SDS011;15123;-37.794;175.246;2023-04-25T00:09:06;11.57;;;2.05;;
27722;SDS011;15123;-37.794;175.246;2023-04-25T00:11:39;9.73;;;2.03;;
27722;SDS011;15123;-37.794;175.246;2023-04-25T00:14:10;14.18;;;2.25;;
27722;SDS011;15123;-37.794;175.246;2023-04-25T00:16:42;10.75;;;2.20;;
27722;SDS011;15123;-37.794;175.246;2023-04-25T00:19:13;12.02;;;2.30;;
27722;SDS011;15123;-37.794;175.246;2023-04-25T00:21:46;15.40;;;2.70;;
27722;SDS011;15123;-37.794;175.246;2023-04-25T00:24:19;13.00;;;2.38;;
27722;SDS011;15123;-37.794;175.246;2023-04-25T00:26:50;14.23;;;2.50;;
27722;SDS011;15123;-37.794;175.246;2023-04-25T00:29:21;12.77;;;2.65;;
27722;SDS011;15123;-37.794;175.246;2023-04-25T00:31:52;14.00;;;2.90;;
27722;SDS011;15123;-37.794;175.246;2023-04-25T00:34:24;16.60;;;2.88;;
27722;SDS011;15123;-37.794;175.246;2023-04-25T00:36:55;14.93;;;3.45;;
27722;SDS011;15123;-37.794;175.246;2023-04-25T00:39:27;15.80;;;2.50;;
27722;SDS011;15123;-37.794;175.246;2023-04-25T00:41:59;15.88;;;3.03;;
27722;SDS011;15123;-37.794;175.246;2023-04-25T00:44:32;16.38;;;3.08;;
27722;SDS011;15123;-37.794;175.246;2023-04-25T00:47:04;15.23;;;3.30;;
27722;SDS011;15123;-37.794;175.246;2023-04-25T00:49:35;14.85;;;3.88;;
27722;SDS011;15123;-37.794;175.246;2023-04-25T00:52:06;18.00;;;3.60;;
27722;SDS011;15123;-37.794;175.246;2023-04-25T00:54:38;17.42;;;3.50;;
27722;SDS011;15123;-37.794;175.246;2023-04-25T00:57:09;15.18;;;3.35;;
27722;SDS011;15123;-37.794;175.246;2023-04-25T00:59:41;14.20;;;2.45;;
27722;SDS011;15123;-37.794;175.246;2023-04-25T01:02:16;16.40;;;2.97;;
27722;SDS011;15123;-37.794;175.246;2023-04-25T01:07:19;15.57;;;2.70;;
27722;SDS011;15123;-37.794;175.246;2023-04-25T01:12:24;13.20;;;2.13;;
27722;SDS011;15123;-37.794;175.246;2023-04-25T01:14:55;12.82;;;2.35;;
27722;SDS011;15123;-37.794;175.246;2023-04-25T01:17:30;16.15;;;2.47;;
27722;SDS011;15123;-37.794;175.246;2023-04-25T01:20:06;14.65;;;2.13;;
27722;SDS011;15123;-37.794;175.246;2023-04-25T01:22:39;19.08;;;2.42;;
27722;SDS011;15123;-37.794;175.246;2023-04-25T01:25:12;17.40;;;2.05;;
27722;SDS011;15123;-37.794;175.246;2023-04-25T01:27:46;13.85;;;2.15;;
27722;SDS011;15123;-37.794;175.246;2023-04-25T01:32:48;15.27;;;2.13;;
27722;SDS011;15123;-37.794;175.246;2023-04-25T01:35:22;13.63;;;2.15;;
27722;SDS011;15123;-37.794;175.246;2023-04-25T01:37:56;14.45;;;2.22;;
27722;SDS011;15123;-37.794;175.246;2023-04-25T01:40:28;11.82;;;1.73;;
27722;SDS011;15123;-37.794;175.246;2023-04-25T01:42:59;13.98;;;1.90;;
27722;SDS011;15123;-37.794;175.246;2023-04-25T01:45:30;11.15;;;1.55;;
27722;SDS011;15123;-37.794;175.246;2023-04-25T01:48:02;12.68;;;1.55;;
27722;SDS011;15123;-37.794;175.246;2023-04-25T01:50:34;14.18;;;1.90;;
27722;SDS011;15123;-37.794;175.246;2023-04-25T01:53:06;11.27;;;1.70;;
27722;SDS011;15123;-37.794;175.246;2023-04-25T01:55:38;14.90;;;1.80;;
27722;SDS011;15123;-37.794;175.246;2023-04-25T01:58:13;14.25;;;2.10;;
27722;SDS011;15123;-37.794;175.246;2023-04-25T02:00:57;17.67;;;2.38;;
27722;SDS011;15123;-37.794;175.246;2023-04-25T02:03:36;17.10;;;1.90;;
27722;SDS011;15123;-37.794;175.246;2023-04-25T02:06:13;15.18;;;2.20;;
27722;SDS011;15123;-37.794;175.246;2023-04-25T02:08:47;16.73;;;2.15;;
27722;SDS011;15123;-37.794;175.246;2023-04-25T02:11:18;17.88;;;2.80;;
27722;SDS011;15123;-37.794;175.246;2023-04-25T02:14:13;16.60;;;2.10;;
27722;SDS011;15123;-37.794;175.246;2023-04-25T02:17:07;17.40;;;2.25;;
27722;SDS011;15123;-37.794;175.246;2023-04-25T02:19:39;22.33;;;2.88;;
27722;SDS011;15123;-37.794;175.246;2023-04-25T02:22:10;17.58;;;2.40;;
27722;SDS011;15123;-37.794;175.246;2023-04-25T02:24:42;15.90;;;2.40;;
27722;SDS011;15123;-37.794;175.246;2023-04-25T02:27:15;16.45;;;2.17;;
27722;SDS011;15123;-37.794;175.246;2023-04-25T02:29:46;19.70;;;2.30;;
27722;SDS011;15123;-37.794;175.246;2023-04-25T02:32:17;14.88;;;2.15;;
27722;SDS011;15123;-37.794;175.246;2023-04-25T02:34:48;18.17;;;2.22;;
27722;SDS011;15123;-37.794;175.246;2023-04-25T02:37:20;13.93;;;2.03;;
27722;SDS011;15123;-37.794;175.246;2023-04-25T02:39:51;16.73;;;2.38;;
27722;SDS011;15123;-37.794;175.246;2023-04-25T02:42:22;16.15;;;1.95;;
27722;SDS011;15123;-37.794;175.246;2023-04-25T02:44:53;19.00;;;2.67;;
27722;SDS011;15123;-37.794;175.246;2023-04-25T02:47:24;18.85;;;2.95;;
27722;SDS011;15123;-37.794;175.246;2023-04-25T02:52:27;17.38;;;2.08;;
27722;SDS011;15123;-37.794;175.246;2023-04-25T02:55:09;21.90;;;2.58;;
27722;SDS011;15123;-37.794;175.246;2023-04-25T02:57:43;17.35;;;2.25;;
27722;SDS011;15123;-37.794;175.246;2023-04-25T03:00:22;17.55;;;2.35;;
27722;SDS011;15123;-37.794;175.246;2023-04-25T03:02:54;18.98;;;2.45;;
27722;SDS011;15123;-37.794;175.246;2023-04-25T03:05:25;17.48;;;2.30;;
27722;SDS011;15123;-37.794;175.246;2023-04-25T03:07:57;15.60;;;2.53;;
27722;SDS011;15123;-37.794;175.246;2023-04-25T03:10:29;19.20;;;2.75;;
27722;SDS011;15123;-37.794;175.246;2023-04-25T03:13:05;17.80;;;2.30;;
27722;SDS011;15123;-37.794;175.246;2023-04-25T03:15:38;15.35;;;2.58;;
27722;SDS011;15123;-37.794;175.246;2023-04-25T03:18:10;21.73;;;2.35;;
27722;SDS011;15123;-37.794;175.246;2023-04-25T03:20:41;17.27;;;2.40;;
27722;SDS011;15123;-37.794;175.246;2023-04-25T03:25:44;15.70;;;2.50;;
27722;SDS011;15123;-37.794;175.246;2023-04-25T03:28:16;17.17;;;2.60;;
27722;SDS011;15123;-37.794;175.246;2023-04-25T03:30:47;22.25;;;2.95;;
27722;SDS011;15123;-37.794;175.246;2023-04-25T03:33:18;17.38;;;2.50;;
27722;SDS011;15123;-37.794;175.246;2023-04-25T03:35:49;14.38;;;2.03;;
27722;SDS011;15123;-37.794;175.246;2023-04-25T03:38:20;18.17;;;2.65;;
27722;SDS011;15123;-37.794;175.246;2023-04-25T03:40:52;13.30;;;2.22;;
27722;SDS011;15123;-37.794;175.246;2023-04-25T03:43:50;20.45;;;3.30;;
27722;SDS011;15123;-37.794;175.246;2023-04-25T03:46:21;22.42;;;2.75;;
27722;SDS011;15123;-37.794;175.246;2023-04-25T03:51:31;19.20;;;2.55;;
27722;SDS011;15123;-37.794;175.246;2023-04-25T03:54:02;21.13;;;2.40;;
27722;SDS011;15123;-37.794;175.246;2023-04-25T03:56:39;23.17;;;2.88;;
27722;SDS011;15123;-37.794;175.246;2023-04-25T03:59:18;21.73;;;3.55;;
27722;SDS011;15123;-37.794;175.246;2023-04-25T04:01:50;22.95;;;3.03;;
27722;SDS011;15123;-37.794;175.246;2023-04-25T04:04:22;21.63;;;2.58;;
27722;SDS011;15123;-37.794;175.246;2023-04-25T04:06:53;21.75;;;2.80;;
27722;SDS011;15123;-37.794;175.246;2023-04-25T04:09:27;23.42;;;2.65;;
27722;SDS011;15123;-37.794;175.246;2023-04-25T04:12:00;20.65;;;2.50;;
27722;SDS011;15123;-37.794;175.246;2023-04-25T04:14:33;22.75;;;2.58;;
27722;SDS011;15123;-37.794;175.246;2023-04-25T04:17:04;18.00;;;2.35;;
27722;SDS011;15123;-37.794;175.246;2023-04-25T04:19:36;20.00;;;2.22;;
27722;SDS011;15123;-37.794;175.246;2023-04-25T04:22:11;17.40;;;2.20;;
27722;SDS011;15123;-37.794;175.246;2023-04-25T04:27:20;22.77;;;2.58;;
27722;SDS011;15123;-37.794;175.246;2023-04-25T04:30:15;17.20;;;2.30;;
27722;SDS011;15123;-37.794;175.246;2023-04-25T04:32:57;20.08;;;2.28;;
27722;SDS011;15123;-37.794;175.246;2023-04-25T04:35:30;25.20;;;2.67;;
27722;SDS011;15123;-37.794;175.246;2023-04-25T04:38:01;31.20;;;3.53;;
27722;SDS011;15123;-37.794;175.246;2023-04-25T04:40:36;19.30;;;2.42;;
27722;SDS011;15123;-37.794;175.246;2023-04-25T04:43:28;23.25;;;2.92;;
27722;SDS011;15123;-37.794;175.246;2023-04-25T04:46:07;16.80;;;2.38;;
27722;SDS011;15123;-37.794;175.246;2023-04-25T04:49:00;18.60;;;2.50;;
27722;SDS011;15123;-37.794;175.246;2023-04-25T04:51:44;18.60;;;2.45;;
27722;SDS011;15123;-37.794;175.246;2023-04-25T04:54:34;20.98;;;2.53;;
27722;SDS011;15123;-37.794;175.246;2023-04-25T04:57:31;19.42;;;2.97;;
27722;SDS011;15123;-37.794;175.246;2023-04-25T05:00:15;20.55;;;2.60;;
27722;SDS011;15123;-37.794;175.246;2023-04-25T05:03:15;21.30;;;2.53;;
27722;SDS011;15123;-37.794;175.246;2023-04-25T05:06:02;24.25;;;2.63;;
27722;SDS011;15123;-37.794;175.246;2023-04-25T05:09:01;22.88;;;3.10;;
27722;SDS011;15123;-37.794;175.246;2023-04-25T05:11:51;20.55;;;2.67;;
27722;SDS011;15123;-37.794;175.246;2023-04-25T05:14:45;22.23;;;2.50;;
27722;SDS011;15123;-37.794;175.246;2023-04-25T05:17:51;22.63;;;2.70;;
27722;SDS011;15123;-37.794;175.246;2023-04-25T05:20:55;22.05;;;2.80;;
27722;SDS011;15123;-37.794;175.246;2023-04-25T05:23:44;23.75;;;3.38;;
27722;SDS011;15123;-37.794;175.246;2023-04-25T05:26:42;23.52;;;3.00;;
27722;SDS011;15123;-37.794;175.246;2023-04-25T05:29:32;19.48;;;2.47;;
27722;SDS011;15123;-37.794;175.246;2023-04-25T05:32:38;17.60;;;2.63;;
27722;SDS011;15123;-37.794;175.246;2023-04-25T05:35:10;22.85;;;2.97;;
27722;SDS011;15123;-37.794;175.246;2023-04-25T05:37:45;18.02;;;2.53;;
27722;SDS011;15123;-37.794;175.246;2023-04-25T05:40:19;21.83;;;3.70;;
27722;SDS011;15123;-37.794;175.246;2023-04-25T05:43:12;21.48;;;2.80;;
27722;SDS011;15123;-37.794;175.246;2023-04-25T05:45:49;24.02;;;3.25;;
27722;SDS011;15123;-37.794;175.246;2023-04-25T05:48:32;20.35;;;2.67;;
27722;SDS011;15123;-37.794;175.246;2023-04-25T05:51:22;21.35;;;3.08;;
27722;SDS011;15123;-37.794;175.246;2023-04-25T05:54:06;22.75;;;3.15;;
27722;SDS011;15123;-37.794;175.246;2023-04-25T05:56:38;22.35;;;3.45;;
27722;SDS011;15123;-37.794;175.246;2023-04-25T05:59:09;18.20;;;3.17;;
27722;SDS011;15123;-37.794;175.246;2023-04-25T06:01:41;15.90;;;2.80;;
27722;SDS011;15123;-37.794;175.246;2023-04-25T06:06:43;26.00;;;3.45;;
27722;SDS011;15123;-37.794;175.246;2023-04-25T06:09:15;21.10;;;3.20;;
27722;SDS011;15123;-37.794;175.246;2023-04-25T06:11:47;20.25;;;3.28;;
27722;SDS011;15123;-37.794;175.246;2023-04-25T06:14:18;17.45;;;3.20;;
27722;SDS011;15123;-37.794;175.246;2023-04-25T06:16:51;24.27;;;3.10;;
27722;SDS011;15123;-37.794;175.246;2023-04-25T06:19:23;23.92;;;3.28;;
27722;SDS011;15123;-37.794;175.246;2023-04-25T06:21:54;19.67;;;3.55;;
27722;SDS011;15123;-37.794;175.246;2023-04-25T06:24:26;18.27;;;3.45;;
27722;SDS011;15123;-37.794;175.246;2023-04-25T06:29:28;17.98;;;3.50;;
27722;SDS011;15123;-37.794;175.246;2023-04-25T06:31:59;16.05;;;3.42;;
27722;SDS011;15123;-37.794;175.246;2023-04-25T06:34:31;17.35;;;2.85;;
27722;SDS011;15123;-37.794;175.246;2023-04-25T06:37:03;19.35;;;2.95;;
27722;SDS011;15123;-37.794;175.246;2023-04-25T06:39:34;19.95;;;3.88;;
27722;SDS011;15123;-37.794;175.246;2023-04-25T06:42:08;22.50;;;3.40;;
27722;SDS011;15123;-37.794;175.246;2023-04-25T06:44:59;22.67;;;3.03;;
27722;SDS011;15123;-37.794;175.246;2023-04-25T06:47:32;19.05;;;3.33;;
27722;SDS011;15123;-37.794;175.246;2023-04-25T06:50:04;20.90;;;2.80;;
27722;SDS011;15123;-37.794;175.246;2023-04-25T06:52:36;22.88;;;3.67;;
27722;SDS011;15123;-37.794;175.246;2023-04-25T06:55:08;20.27;;;3.35;;
27722;SDS011;15123;-37.794;175.246;2023-04-25T06:58:00;23.13;;;3.47;;
27722;SDS011;15123;-37.794;175.246;2023-04-25T07:03:25;21.10;;;3.17;;
27722;SDS011;15123;-37.794;175.246;2023-04-25T07:06:01;24.80;;;3.90;;
27722;SDS011;15123;-37.794;175.246;2023-04-25T07:08:32;17.92;;;2.95;;
27722;SDS011;15123;-37.794;175.246;2023-04-25T07:11:04;17.83;;;3.35;;
27722;SDS011;15123;-37.794;175.246;2023-04-25T07:13:36;16.85;;;2.65;;
27722;SDS011;15123;-37.794;175.246;2023-04-25T07:16:07;18.67;;;2.50;;
27722;SDS011;15123;-37.794;175.246;2023-04-25T07:18:39;19.50;;;2.63;;
27722;SDS011;15123;-37.794;175.246;2023-04-25T07:21:10;16.02;;;2.70;;
27722;SDS011;15123;-37.794;175.246;2023-04-25T07:23:44;23.35;;;2.95;;
27722;SDS011;15123;-37.794;175.246;2023-04-25T07:26:19;19.15;;;2.70;;
27722;SDS011;15123;-37.794;175.246;2023-04-25T07:29:15;18.70;;;3.13;;
27722;SDS011;15123;-37.794;175.246;2023-04-25T07:31:46;17.98;;;2.90;;
27722;SDS011;15123;-37.794;175.246;2023-04-25T07:34:20;20.73;;;3.50;;
27722;SDS011;15123;-37.794;175.246;2023-04-25T07:36:52;17.48;;;2.85;;
27722;SDS011;15123;-37.794;175.246;2023-04-25T07:39:26;23.63;;;3.38;;
27722;SDS011;15123;-37.794;175.246;2023-04-25T07:41:57;23.85;;;4.50;;
27722;SDS011;15123;-37.794;175.246;2023-04-25T07:44:30;23.08;;;4.50;;
27722;SDS011;15123;-37.794;175.246;2023-04-25T07:47:09;22.60;;;5.13;;
27722;SDS011;15123;-37.794;175.246;2023-04-25T07:49:41;24.42;;;5.50;;
27722;SDS011;15123;-37.794;175.246;2023-04-25T07:52:13;20.90;;;5.47;;
27722;SDS011;15123;-37.794;175.246;2023-04-25T07:54:50;25.88;;;5.03;;
27722;SDS011;15123;-37.794;175.246;2023-04-25T07:57:29;26.38;;;6.03;;
27722;SDS011;15123;-37.794;175.246;2023-04-25T08:00:02;23.98;;;5.40;;
27722;SDS011;15123;-37.794;175.246;2023-04-25T08:02:40;22.05;;;5.13;;
27722;SDS011;15123;-37.794;175.246;2023-04-25T08:05:16;18.85;;;4.55;;
27722;SDS011;15123;-37.794;175.246;2023-04-25T08:07:58;17.20;;;3.63;;
27722;SDS011;15123;-37.794;175.246;2023-04-25T08:10:29;21.42;;;5.30;;
27722;SDS011;15123;-37.794;175.246;2023-04-25T08:13:02;22.30;;;4.72;;
27722;SDS011;15123;-37.794;175.246;2023-04-25T08:15:34;17.63;;;3.50;;
27722;SDS011;15123;-37.794;175.246;2023-04-25T08:18:05;17.92;;;3.55;;
27722;SDS011;15123;-37.794;175.246;2023-04-25T08:20:37;21.55;;;3.60;;
27722;SDS011;15123;-37.794;175.246;2023-04-25T08:23:10;21.10;;;4.03;;
27722;SDS011;15123;-37.794;175.246;2023-04-25T08:28:26;20.95;;;3.92;;
27722;SDS011;15123;-37.794;175.246;2023-04-25T08:31:00;22.02;;;3.85;;
27722;SDS011;15123;-37.794;175.246;2023-04-25T08:33:40;27.98;;;6.68;;
27722;SDS011;15123;-37.794;175.246;2023-04-25T08:36:25;19.02;;;4.80;;
27722;SDS011;15123;-37.794;175.246;2023-04-25T08:39:22;26.75;;;5.00;;
27722;SDS011;15123;-37.794;175.246;2023-04-25T08:42:33;24.58;;;4.35;;
27722;SDS011;15123;-37.794;175.246;2023-04-25T08:45:05;23.75;;;4.82;;
27722;SDS011;15123;-37.794;175.246;2023-04-25T08:47:41;23.05;;;5.55;;
27722;SDS011;15123;-37.794;175.246;2023-04-25T08:50:14;25.13;;;4.75;;
27722;SDS011;15123;-37.794;175.246;2023-04-25T08:52:46;19.60;;;3.47;;
27722;SDS011;15123;-37.794;175.246;2023-04-25T08:55:19;22.50;;;3.80;;
27722;SDS011;15123;-37.794;175.246;2023-04-25T08:57:56;18.13;;;3.15;;
27722;SDS011;15123;-37.794;175.246;2023-04-25T09:00:29;24.77;;;4.40;;
27722;SDS011;15123;-37.794;175.246;2023-04-25T09:03:01;27.77;;;5.70;;
27722;SDS011;15123;-37.794;175.246;2023-04-25T09:05:34;27.40;;;6.30;;
27722;SDS011;15123;-37.794;175.246;2023-04-25T09:08:09;31.80;;;6.15;;
27722;SDS011;15123;-37.794;175.246;2023-04-25T09:10:42;25.25;;;4.97;;
27722;SDS011;15123;-37.794;175.246;2023-04-25T09:13:14;25.42;;;3.42;;
27722;SDS011;15123;-37.794;175.246;2023-04-25T09:16:10;23.58;;;4.90;;
27722;SDS011;15123;-37.794;175.246;2023-04-25T09:19:20;21.83;;;4.35;;
27722;SDS011;15123;-37.794;175.246;2023-04-25T09:22:04;24.02;;;3.60;;
27722;SDS011;15123;-37.794;175.246;2023-04-25T09:24:37;22.08;;;3.72;;
27722;SDS011;15123;-37.794;175.246;2023-04-25T09:27:12;21.98;;;4.32;;
27722;SDS011;15123;-37.794;175.246;2023-04-25T09:29:56;26.90;;;5.50;;
27722;SDS011;15123;-37.794;175.246;2023-04-25T09:32:56;20.60;;;3.20;;
27722;SDS011;15123;-37.794;175.246;2023-04-25T09:35:29;18.05;;;3.15;;
27722;SDS011;15123;-37.794;175.246;2023-04-25T09:38:15;22.17;;;2.65;;
27722;SDS011;15123;-37.794;175.246;2023-04-25T09:40:58;17.23;;;2.72;;
27722;SDS011;15123;-37.794;175.246;2023-04-25T09:43:38;18.77;;;3.40;;
27722;SDS011;15123;-37.794;175.246;2023-04-25T09:46:11;18.80;;;3.20;;
27722;SDS011;15123;-37.794;175.246;2023-04-25T09:48:50;23.73;;;3.70;;
27722;SDS011;15123;-37.794;175.246;2023-04-25T09:51:30;19.63;;;3.50;;
27722;SDS011;15123;-37.794;175.246;2023-04-25T09:54:02;24.38;;;3.80;;
27722;SDS011;15123;-37.794;175.246;2023-04-25T09:56:43;23.20;;;2.97;;
27722;SDS011;15123;-37.794;175.246;2023-04-25T09:59:18;23.50;;;3.28;;
27722;SDS011;15123;-37.794;175.246;2023-04-25T10:01:54;23.75;;;3.40;;
27722;SDS011;15123;-37.794;175.246;2023-04-25T10:04:34;27.83;;;3.33;;
27722;SDS011;15123;-37.794;175.246;2023-04-25T10:07:30;21.77;;;3.10;;
27722;SDS011;15123;-37.794;175.246;2023-04-25T10:10:03;26.70;;;3.38;;
27722;SDS011;15123;-37.794;175.246;2023-04-25T10:12:35;19.35;;;3.15;;
27722;SDS011;15123;-37.794;175.246;2023-04-25T10:15:07;20.35;;;3.15;;
27722;SDS011;15123;-37.794;175.246;2023-04-25T10:17:39;20.13;;;3.08;;
27722;SDS011;15123;-37.794;175.246;2023-04-25T10:20:11;21.52;;;3.42;;
27722;SDS011;15123;-37.794;175.246;2023-04-25T10:22:46;22.70;;;2.90;;
27722;SDS011;15123;-37.794;175.246;2023-04-25T10:25:18;14.38;;;2.42;;
27722;SDS011;15123;-37.794;175.246;2023-04-25T10:27:51;18.95;;;3.08;;
27722;SDS011;15123;-37.794;175.246;2023-04-25T10:30:22;23.20;;;2.95;;
27722;SDS011;15123;-37.794;175.246;2023-04-25T10:32:54;16.80;;;2.80;;
27722;SDS011;15123;-37.794;175.246;2023-04-25T10:35:29;22.10;;;3.13;;
27722;SDS011;15123;-37.794;175.246;2023-04-25T10:38:08;18.17;;;2.85;;
27722;SDS011;15123;-37.794;175.246;2023-04-25T10:40:40;22.35;;;2.83;;
27722;SDS011;15123;-37.794;175.246;2023-04-25T10:46:01;20.52;;;2.35;;
27722;SDS011;15123;-37.794;175.246;2023-04-25T10:48:35;18.83;;;2.70;;
27722;SDS011;15123;-37.794;175.246;2023-04-25T10:51:07;18.45;;;2.72;;
27722;SDS011;15123;-37.794;175.246;2023-04-25T10:53:39;23.17;;;3.10;;
27722;SDS011;15123;-37.794;175.246;2023-04-25T10:56:11;20.85;;;3.25;;
27722;SDS011;15123;-37.794;175.246;2023-04-25T10:58:43;15.02;;;2.47;;
27722;SDS011;15123;-37.794;175.246;2023-04-25T11:01:20;21.00;;;3.05;;
27722;SDS011;15123;-37.794;175.246;2023-04-25T11:03:57;18.77;;;3.53;;
27722;SDS011;15123;-37.794;175.246;2023-04-25T11:06:33;16.42;;;3.10;;
27722;SDS011;15123;-37.794;175.246;2023-04-25T11:09:35;18.85;;;3.20;;
27722;SDS011;15123;-37.794;175.246;2023-04-25T11:12:09;20.58;;;3.17;;
27722;SDS011;15123;-37.794;175.246;2023-04-25T11:14:45;19.15;;;2.53;;
27722;SDS011;15123;-37.794;175.246;2023-04-25T11:17:20;18.50;;;2.90;;
27722;SDS011;15123;-37.794;175.246;2023-04-25T11:19:51;14.70;;;2.30;;
27722;SDS011;15123;-37.794;175.246;2023-04-25T11:22:23;19.08;;;2.70;;
27722;SDS011;15123;-37.794;175.246;2023-04-25T11:24:54;26.67;;;3.25;;
27722;SDS011;15123;-37.794;175.246;2023-04-25T11:27:25;19.52;;;2.95;;
27722;SDS011;15123;-37.794;175.246;2023-04-25T11:29:57;19.90;;;2.30;;
27722;SDS011;15123;-37.794;175.246;2023-04-25T11:32:29;16.55;;;2.28;;
27722;SDS011;15123;-37.794;175.246;2023-04-25T11:35:01;19.80;;;2.50;;
27722;SDS011;15123;-37.794;175.246;2023-04-25T11:37:33;15.32;;;2.17;;
27722;SDS011;15123;-37.794;175.246;2023-04-25T11:40:04;18.80;;;2.53;;
27722;SDS011;15123;-37.794;175.246;2023-04-25T11:42:43;14.98;;;2.40;;
27722;SDS011;15123;-37.794;175.246;2023-04-25T11:45:16;16.42;;;1.98;;
27722;SDS011;15123;-37.794;175.246;2023-04-25T11:47:48;19.23;;;2.28;;
27722;SDS011;15123;-37.794;175.246;2023-04-25T11:50:20;16.65;;;2.28;;
27722;SDS011;15123;-37.794;175.246;2023-04-25T11:52:51;13.38;;;2.10;;
27722;SDS011;15123;-37.794;175.246;2023-04-25T11:55:27;16.85;;;1.88;;
27722;SDS011;15123;-37.794;175.246;2023-04-25T11:58:01;16.88;;;2.00;;
27722;SDS011;15123;-37.794;175.246;2023-04-25T12:00:34;19.13;;;2.13;;
27722;SDS011;15123;-37.794;175.246;2023-04-25T12:03:05;14.18;;;2.00;;
27722;SDS011;15123;-37.794;175.246;2023-04-25T12:05:41;17.42;;;2.10;;
27722;SDS011;15123;-37.794;175.246;2023-04-25T12:08:38;15.60;;;1.90;;
27722;SDS011;15123;-37.794;175.246;2023-04-25T12:11:19;16.45;;;2.42;;
27722;SDS011;15123;-37.794;175.246;2023-04-25T12:13:52;17.85;;;2.10;;
27722;SDS011;15123;-37.794;175.246;2023-04-25T12:16:24;19.30;;;2.22;;
27722;SDS011;15123;-37.794;175.246;2023-04-25T12:18:56;15.30;;;2.10;;
27722;SDS011;15123;-37.794;175.246;2023-04-25T12:21:29;19.42;;;2.28;;
27722;SDS011;15123;-37.794;175.246;2023-04-25T12:27:03;13.55;;;1.88;;
27722;SDS011;15123;-37.794;175.246;2023-04-25T12:29:38;14.83;;;1.83;;
27722;SDS011;15123;-37.794;175.246;2023-04-25T12:32:17;13.15;;;1.90;;
27722;SDS011;15123;-37.794;175.246;2023-04-25T12:34:48;16.15;;;2.13;;
27722;SDS011;15123;-37.794;175.246;2023-04-25T12:37:19;14.05;;;1.80;;
27722;SDS011;15123;-37.794;175.246;2023-04-25T12:39:51;15.65;;;2.17;;
27722;SDS011;15123;-37.794;175.246;2023-04-25T12:42:23;16.60;;;1.80;;
27722;SDS011;15123;-37.794;175.246;2023-04-25T12:44:54;15.75;;;2.03;;
27722;SDS011;15123;-37.794;175.246;2023-04-25T12:47:26;15.73;;;1.90;;
27722;SDS011;15123;-37.794;175.246;2023-04-25T12:49:58;14.02;;;2.50;;
27722;SDS011;15123;-37.794;175.246;2023-04-25T12:52:30;12.27;;;1.90;;
27722;SDS011;15123;-37.794;175.246;2023-04-25T12:55:01;18.38;;;2.17;;
27722;SDS011;15123;-37.794;175.246;2023-04-25T13:00:04;15.27;;;1.80;;
27722;SDS011;15123;-37.794;175.246;2023-04-25T13:02:39;13.88;;;1.80;;
27722;SDS011;15123;-37.794;175.246;2023-04-25T13:05:11;15.02;;;1.95;;
27722;SDS011;15123;-37.794;175.246;2023-04-25T13:07:43;14.32;;;1.77;;
27722;SDS011;15123;-37.794;175.246;2023-04-25T13:10:14;13.13;;;2.10;;
27722;SDS011;15123;-37.794;175.246;2023-04-25T13:12:46;14.38;;;1.80;;
27722;SDS011;15123;-37.794;175.246;2023-04-25T13:17:48;12.18;;;1.70;;
27722;SDS011;15123;-37.794;175.246;2023-04-25T13:22:52;14.73;;;1.88;;
27722;SDS011;15123;-37.794;175.246;2023-04-25T13:25:23;12.32;;;1.40;;
27722;SDS011;15123;-37.794;175.246;2023-04-25T13:27:55;16.38;;;2.00;;
27722;SDS011;15123;-37.794;175.246;2023-04-25T13:30:26;12.48;;;1.70;;
27722;SDS011;15123;-37.794;175.246;2023-04-25T13:32:58;14.00;;;2.28;;
27722;SDS011;15123;-37.794;175.246;2023-04-25T13:35:34;16.40;;;1.90;;
27722;SDS011;15123;-37.794;175.246;2023-04-25T13:38:06;12.35;;;2.00;;
27722;SDS011;15123;-37.794;175.246;2023-04-25T13:40:39;14.23;;;1.98;;
27722;SDS011;15123;-37.794;175.246;2023-04-25T13:43:10;15.23;;;1.80;;
27722;SDS011;15123;-37.794;175.246;2023-04-25T13:45:42;18.08;;;1.90;;
27722;SDS011;15123;-37.794;175.246;2023-04-25T13:48:14;15.40;;;1.88;;
27722;SDS011;15123;-37.794;175.246;2023-04-25T13:50:45;16.88;;;2.20;;
27722;SDS011;15123;-37.794;175.246;2023-04-25T13:53:17;15.30;;;2.08;;
27722;SDS011;15123;-37.794;175.246;2023-04-25T13:55:48;14.65;;;1.75;;
27722;SDS011;15123;-37.794;175.246;2023-04-25T13:58:20;14.95;;;1.98;;
27722;SDS011;15123;-37.794;175.246;2023-04-25T14:00:52;14.07;;;1.75;;
27722;SDS011;15123;-37.794;175.246;2023-04-25T14:03:23;17.77;;;2.97;;
27722;SDS011;15123;-37.794;175.246;2023-04-25T14:05:55;15.38;;;1.90;;
27722;SDS011;15123;-37.794;175.246;2023-04-25T14:10:58;16.20;;;1.70;;
27722;SDS011;15123;-37.794;175.246;2023-04-25T14:13:31;12.75;;;1.98;;
27722;SDS011;15123;-37.794;175.246;2023-04-25T14:16:02;14.15;;;1.85;;
27722;SDS011;15123;-37.794;175.246;2023-04-25T14:18:35;10.35;;;1.80;;
27722;SDS011;15123;-37.794;175.246;2023-04-25T14:21:06;12.90;;;1.50;;
27722;SDS011;15123;-37.794;175.246;2023-04-25T14:23:40;16.77;;;2.10;;
27722;SDS011;15123;-37.794;175.246;2023-04-25T14:26:12;17.50;;;2.03;;
27722;SDS011;15123;-37.794;175.246;2023-04-25T14:28:43;14.05;;;2.20;;
27722;SDS011;15123;-37.794;175.246;2023-04-25T14:31:15;14.85;;;1.92;;
27722;SDS011;15123;-37.794;175.246;2023-04-25T14:33:46;12.90;;;1.70;;
27722;SDS011;15123;-37.794;175.246;2023-04-25T14:36:18;12.63;;;1.70;;
27722;SDS011;15123;-37.794;175.246;2023-04-25T14:38:50;11.73;;;2.10;;
27722;SDS011;15123;-37.794;175.246;2023-04-25T14:41:22;17.33;;;1.73;;
27722;SDS011;15123;-37.794;175.246;2023-04-25T14:43:54;14.73;;;1.73;;
27722;SDS011;15123;-37.794;175.246;2023-04-25T14:46:26;17.02;;;2.20;;
27722;SDS011;15123;-37.794;175.246;2023-04-25T14:48:59;12.75;;;1.80;;
27722;SDS011;15123;-37.794;175.246;2023-04-25T14:51:32;18.83;;;2.10;;
27722;SDS011;15123;-37.794;175.246;2023-04-25T14:54:03;15.35;;;1.80;;
27722;SDS011;15123;-37.794;175.246;2023-04-25T14:59:06;15.05;;;1.58;;
27722;SDS011;15123;-37.794;175.246;2023-04-25T15:01:37;14.63;;;1.90;;
27722;SDS011;15123;-37.794;175.246;2023-04-25T15:04:09;18.05;;;2.05;;
27722;SDS011;15123;-37.794;175.246;2023-04-25T15:06:42;13.90;;;1.50;;
27722;SDS011;15123;-37.794;175.246;2023-04-25T15:11:46;13.07;;;1.55;;
27722;SDS011;15123;-37.794;175.246;2023-04-25T15:14:18;13.75;;;1.67;;
27722;SDS011;15123;-37.794;175.246;2023-04-25T15:16:49;14.05;;;1.90;;
27722;SDS011;15123;-37.794;175.246;2023-04-25T15:19:21;14.35;;;1.98;;
27722;SDS011;15123;-37.794;175.246;2023-04-25T15:21:53;12.32;;;1.48;;
27722;SDS011;15123;-37.794;175.246;2023-04-25T15:24:25;16.15;;;2.00;;
27722;SDS011;15123;-37.794;175.246;2023-04-25T15:26:56;13.30;;;1.50;;
27722;SDS011;15123;-37.794;175.246;2023-04-25T15:29:28;11.70;;;1.48;;
27722;SDS011;15123;-37.794;175.246;2023-04-25T15:32:00;12.85;;;1.67;;